Time,TemperatureF,DewpointF,PressureIn,WindDirection,WindDirectionDegrees,WindSpeedMPH,WindSpeedGustMPH,Humidity,HourlyPrecipIn,Conditions,Clouds,dailyrainin,SoftwareType,DateUTC
2013-07-16 00:03:00,54.0,48.0,29.70,SSE,164,5.0,-999.0,81,-99.99,,,0.00,weatherlink.com 1.10,2013-07-16 06:03:00,
2013-07-16 00:18:00,54.2,48.0,29.70,SSE,168,5.0,-999.0,80,-99.99,,,0.00,weatherlink.com 1.10,2013-07-16 06:18:00,
2013-07-16 00:33:00,53.3,49.0,29.70,SSE,168,0.0,-999.0,84,-99.99,,,0.00,weatherlink.com 1.10,2013-07-16 06:33:00,
2013-07-16 00:48:00,53.6,47.0,29.70,SE,144,2.0,-999.0,79,-99.99,,,0.00,weatherlink.com 1.10,2013-07-16 06:48:00,
2013-07-16 01:03:00,54.3,47.0,29.70,SE,134,5.0,-999.0,76,-99.99,,,0.00,weatherlink.com 1.10,2013-07-16 07:03:00,
2013-07-16 01:18:00,54.1,47.0,29.71,SE,128,1.0,-999.0,77,-99.99,,,0.00,weatherlink.com 1.10,2013-07-16 07:18:00,
2013-07-16 01:33:00,53.5,47.0,29.70,SE,126,5.0,-999.0,78,-99.99,,,0.00,weatherlink.com 1.10,2013-07-16 07:33:00,
2013-07-16 01:49:00,53.5,46.0,29.70,SE,124,6.0,-999.0,77,-99.99,,,0.00,weatherlink.com 1.10,2013-07-16 07:49:00,
2013-07-16 02:04:00,53.3,46.0,29.71,SE,130,4.0,-999.0,77,-99.99,,,0.00,weatherlink.com 1.10,2013-07-16 08:04:00,
2013-07-16 02:19:00,54.0,46.0,29.71,SE,127,4.0,-999.0,75,-99.99,,,0.00,weatherlink.com 1.10,2013-07-16 08:19:00,
2013-07-16 02:34:00,54.0,44.0,29.71,SE,127,4.0,-999.0,70,-99.99,,,0.00,weatherlink.com 1.10,2013-07-16 08:34:00,
2013-07-16 02:49:00,54.7,43.0,29.71,SE,139,2.0,-999.0,66,-99.99,,,0.00,weatherlink.com 1.10,2013-07-16 08:49:00,
2013-07-16 03:04:00,54.1,43.0,29.70,SE,124,5.0,-999.0,67,-99.99,,,0.00,weatherlink.com 1.10,2013-07-16 09:04:00,
2013-07-16 03:19:00,56.3,37.0,29.70,SSE,157,9.0,-999.0,48,-99.99,,,0.00,weatherlink.com 1.10,2013-07-16 09:19:00,
2013-07-16 03:34:00,55.5,42.0,29.70,SE,140,0.0,-999.0,61,-99.99,,,0.00,weatherlink.com 1.10,2013-07-16 09:34:00,
2013-07-16 03:49:00,54.9,42.0,29.70,SE,138,1.0,-999.0,62,-99.99,,,0.00,weatherlink.com 1.10,2013-07-16 09:49:00,
2013-07-16 04:04:00,55.7,40.0,29.70,SSE,153,5.0,-999.0,56,-99.99,,,0.00,weatherlink.com 1.10,2013-07-16 10:04:00,
2013-07-16 04:19:00,55.3,41.0,29.70,SSE,154,7.0,-999.0,60,-99.99,,,0.00,weatherlink.com 1.10,2013-07-16 10:19:00,
2013-07-16 04:34:00,55.1,43.0,29.70,South,186,6.0,-999.0,63,-99.99,,,0.00,weatherlink.com 1.10,2013-07-16 10:34:00,
2013-07-16 04:50:00,54.8,44.0,29.70,SW,217,8.0,-999.0,68,-99.99,,,0.00,weatherlink.com 1.10,2013-07-16 10:50:00,
2013-07-16 05:05:00,54.4,44.0,29.70,SW,227,6.0,-999.0,69,-99.99,,,0.00,weatherlink.com 1.10,2013-07-16 11:05:00,
2013-07-16 05:20:00,54.2,45.0,29.70,SSW,213,8.0,-999.0,72,-99.99,,,0.00,weatherlink.com 1.10,2013-07-16 11:20:00,
2013-07-16 05:35:00,53.7,46.0,29.70,SW,215,7.0,-999.0,75,-99.99,,,0.00,weatherlink.com 1.10,2013-07-16 11:35:00,
2013-07-16 05:50:00,53.5,46.0,29.70,SW,215,7.0,-999.0,76,-99.99,,,0.00,weatherlink.com 1.10,2013-07-16 11:50:00,
2013-07-16 06:05:00,53.1,46.0,29.70,WSW,238,6.0,-999.0,77,-99.99,,,0.00,weatherlink.com 1.10,2013-07-16 12:05:00,
2013-07-16 06:20:00,53.8,46.0,29.70,WSW,240,6.0,-999.0,74,-99.99,,,0.00,weatherlink.com 1.10,2013-07-16 12:20:00,
2013-07-16 06:35:00,53.9,46.0,29.70,West,259,8.0,-999.0,74,-99.99,,,0.00,weatherlink.com 1.10,2013-07-16 12:35:00,
2013-07-16 06:50:00,55.5,45.0,29.70,WNW,295,4.0,-999.0,68,-99.99,,,0.00,weatherlink.com 1.10,2013-07-16 12:50:00,
2013-07-16 07:05:00,55.9,45.0,29.69,WNW,294,8.0,-999.0,68,-99.99,,,0.00,weatherlink.com 1.10,2013-07-16 13:05:00,
2013-07-16 07:20:00,55.3,46.0,29.70,West,275,1.0,-999.0,71,-99.99,,,0.00,weatherlink.com 1.10,2013-07-16 13:20:00,
2013-07-16 07:35:00,55.0,46.0,29.70,WNW,290,3.0,-999.0,71,-99.99,,,0.00,weatherlink.com 1.10,2013-07-16 13:35:00,
2013-07-16 07:51:00,57.3,46.0,29.71,WNW,297,2.0,-999.0,67,-99.99,,,0.00,weatherlink.com 1.10,2013-07-16 13:51:00,
2013-07-16 08:06:00,58.5,47.0,29.71,WNW,289,0.0,-999.0,66,-99.99,,,0.00,weatherlink.com 1.10,2013-07-16 14:06:00,
2013-07-16 08:21:00,59.9,47.0,29.71,WNW,296,0.0,-999.0,62,-99.99,,,0.00,weatherlink.com 1.10,2013-07-16 14:21:00,
2013-07-16 08:36:00,61.0,46.0,29.72,NNW,332,0.0,-999.0,58,-99.99,,,0.00,weatherlink.com 1.10,2013-07-16 14:36:00,
2013-07-16 08:51:00,61.7,45.0,29.72,NE,37,3.0,-999.0,54,-99.99,,,0.00,weatherlink.com 1.10,2013-07-16 14:51:00,
2013-07-16 09:06:00,62.8,43.0,29.73,NNE,32,0.0,-999.0,49,-99.99,,,0.00,weatherlink.com 1.10,2013-07-16 15:06:00,
2013-07-16 09:21:00,63.2,41.0,29.72,East,87,0.0,-999.0,45,-99.99,,,0.00,weatherlink.com 1.10,2013-07-16 15:21:00,
2013-07-16 09:36:00,64.0,46.0,29.72,NNE,27,0.0,-999.0,52,-99.99,,,0.00,weatherlink.com 1.10,2013-07-16 15:36:00,
2013-07-16 09:51:00,64.2,43.0,29.72,North,11,5.0,-999.0,46,-99.99,,,0.00,weatherlink.com 1.10,2013-07-16 15:51:00,
2013-07-16 10:07:00,63.9,40.0,29.72,NNE,32,3.0,-999.0,41,-99.99,,,0.00,weatherlink.com 1.10,2013-07-16 16:07:00,
2013-07-16 10:22:00,63.2,40.0,29.71,NNE,24,2.0,-999.0,43,-99.99,,,0.00,weatherlink.com 1.10,2013-07-16 16:22:00,
2013-07-16 10:37:00,63.5,43.0,29.72,NNE,17,6.0,-999.0,47,-99.99,,,0.00,weatherlink.com 1.10,2013-07-16 16:37:00,
2013-07-16 10:52:00,63.4,47.0,29.72,NNW,341,5.0,-999.0,56,-99.99,,,0.00,weatherlink.com 1.10,2013-07-16 16:52:00,
2013-07-16 11:07:00,64.0,43.0,29.72,NNW,331,3.0,-999.0,46,-99.99,,,0.00,weatherlink.com 1.10,2013-07-16 17:07:00,
2013-07-16 11:22:00,63.6,46.0,29.72,NNE,15,3.0,-999.0,53,-99.99,,,0.00,weatherlink.com 1.10,2013-07-16 17:22:00,
2013-07-16 11:37:00,64.3,47.0,29.72,North,360,6.0,-999.0,54,-99.99,,,0.00,weatherlink.com 1.10,2013-07-16 17:37:00,
2013-07-16 11:52:00,65.7,42.0,29.72,WNW,298,0.0,-999.0,43,-99.99,,,0.00,weatherlink.com 1.10,2013-07-16 17:52:00,
2013-07-16 12:07:00,66.1,43.0,29.72,NNE,19,3.0,-999.0,43,-99.99,,,0.00,weatherlink.com 1.10,2013-07-16 18:07:00,
2013-07-16 12:23:00,65.9,42.0,29.73,NNW,338,0.0,-999.0,42,-99.99,,,0.00,weatherlink.com 1.10,2013-07-16 18:23:00,
2013-07-16 12:38:00,67.0,41.0,29.72,NNW,328,4.0,-999.0,39,-99.99,,,0.00,weatherlink.com 1.10,2013-07-16 18:38:00,
2013-07-16 12:53:00,67.4,39.0,29.73,North,5,2.0,-999.0,35,-99.99,,,0.00,weatherlink.com 1.10,2013-07-16 18:53:00,
2013-07-16 13:08:00,68.2,39.0,29.73,ENE,61,1.0,-999.0,35,-99.99,,,0.00,weatherlink.com 1.10,2013-07-16 19:08:00,
2013-07-16 13:23:00,68.1,38.0,29.73,NNW,344,3.0,-999.0,33,-99.99,,,0.00,weatherlink.com 1.10,2013-07-16 19:23:00,
2013-07-16 13:38:00,68.1,39.0,29.73,North,5,4.0,-999.0,35,-99.99,,,0.00,weatherlink.com 1.10,2013-07-16 19:38:00,
2013-07-16 13:53:00,69.3,40.0,29.74,NNW,344,2.0,-999.0,34,-99.99,,,0.00,weatherlink.com 1.10,2013-07-16 19:53:00,
2013-07-16 14:09:00,69.3,38.0,29.74,North,10,3.0,-999.0,32,-99.99,,,0.00,weatherlink.com 1.10,2013-07-16 20:09:00,
2013-07-16 14:24:00,69.5,39.0,29.74,North,9,3.0,-999.0,33,-99.99,,,0.00,weatherlink.com 1.10,2013-07-16 20:24:00,
2013-07-16 14:39:00,68.6,40.0,29.74,NNW,329,2.0,-999.0,35,-99.99,,,0.00,weatherlink.com 1.10,2013-07-16 20:39:00,
2013-07-16 14:54:00,70.2,39.0,29.74,North,11,6.0,-999.0,32,-99.99,,,0.00,weatherlink.com 1.10,2013-07-16 20:54:00,
2013-07-16 15:09:00,70.8,41.0,29.74,NE,35,1.0,-999.0,34,-99.99,,,0.00,weatherlink.com 1.10,2013-07-16 21:09:00,
2013-07-16 15:24:00,70.8,42.0,29.73,SSW,211,1.0,-999.0,35,-99.99,,,0.00,weatherlink.com 1.10,2013-07-16 21:24:00,
2013-07-16 15:39:00,70.5,41.0,29.73,NW,319,0.0,-999.0,34,-99.99,,,0.00,weatherlink.com 1.10,2013-07-16 21:39:00,
2013-07-16 15:55:00,69.9,39.0,29.73,ESE,105,4.0,-999.0,33,-99.99,,,0.00,weatherlink.com 1.10,2013-07-16 21:55:00,
2013-07-16 16:10:00,68.7,39.0,29.73,NNE,30,0.0,-999.0,34,-99.99,,,0.00,weatherlink.com 1.10,2013-07-16 22:10:00,
2013-07-16 16:25:00,70.5,41.0,29.73,East,92,1.0,-999.0,35,-99.99,,,0.00,weatherlink.com 1.10,2013-07-16 22:25:00,
2013-07-16 16:40:00,69.8,42.0,29.73,ESE,109,4.0,-999.0,36,-99.99,,,0.00,weatherlink.com 1.10,2013-07-16 22:40:00,
2013-07-16 16:55:00,69.9,41.0,29.73,ESE,105,4.0,-999.0,35,-99.99,,,0.00,weatherlink.com 1.10,2013-07-16 22:55:00,
2013-07-16 17:10:00,69.3,41.0,29.73,ESE,109,1.0,-999.0,36,-99.99,,,0.00,weatherlink.com 1.10,2013-07-16 23:10:00,
2013-07-16 17:26:00,68.9,42.0,29.71,West,268,5.0,-999.0,38,-99.99,,,0.00,weatherlink.com 1.10,2013-07-16 23:26:00,
2013-07-16 17:41:00,67.4,43.0,29.71,SSW,211,4.0,-999.0,42,-99.99,,,0.00,weatherlink.com 1.10,2013-07-16 23:41:00,
2013-07-16 17:56:00,67.5,43.0,29.70,South,185,6.0,-999.0,42,-99.99,,,0.00,weatherlink.com 1.10,2013-07-16 23:56:00,
2013-07-16 18:11:00,66.6,44.0,29.70,West,273,6.0,-999.0,44,-99.99,,,0.00,weatherlink.com 1.10,2013-07-17 00:11:00,
2013-07-16 18:26:00,65.8,44.0,29.69,North,360,5.0,-999.0,46,-99.99,,,0.00,weatherlink.com 1.10,2013-07-17 00:26:00,
2013-07-16 18:41:00,64.3,44.0,29.69,NNE,32,4.0,-999.0,48,-99.99,,,0.00,weatherlink.com 1.10,2013-07-17 00:41:00,
2013-07-16 18:56:00,63.6,44.0,29.68,South,171,5.0,-999.0,50,-99.99,,,0.00,weatherlink.com 1.10,2013-07-17 00:56:00,
2013-07-16 19:11:00,63.0,44.0,29.69,NW,323,4.0,-999.0,51,-99.99,,,0.00,weatherlink.com 1.10,2013-07-17 01:11:00,
2013-07-16 19:27:00,62.3,44.0,29.69,NE,51,15.0,-999.0,52,-99.99,,,0.00,weatherlink.com 1.10,2013-07-17 01:27:00,
2013-07-16 19:42:00,61.2,44.0,29.69,NE,41,3.0,-999.0,54,-99.99,,,0.00,weatherlink.com 1.10,2013-07-17 01:42:00,
2013-07-16 19:57:00,60.2,44.0,29.70,ENE,76,11.0,-999.0,56,-99.99,,,0.00,weatherlink.com 1.10,2013-07-17 01:57:00,
2013-07-16 20:12:00,58.8,45.0,29.71,NNE,24,4.0,-999.0,60,-99.99,,,0.00,weatherlink.com 1.10,2013-07-17 02:12:00,
2013-07-16 20:27:00,57.5,45.0,29.71,North,10,3.0,-999.0,63,-99.99,,,0.00,weatherlink.com 1.10,2013-07-17 02:27:00,
2013-07-16 20:42:00,56.5,44.0,29.73,East,88,8.0,-999.0,64,-99.99,,,0.00,weatherlink.com 1.10,2013-07-17 02:42:00,
2013-07-16 20:57:00,55.9,44.0,29.73,East,98,14.0,-999.0,65,-99.99,,,0.00,weatherlink.com 1.10,2013-07-17 02:57:00,
2013-07-16 21:12:00,55.4,44.0,29.74,ESE,103,12.0,-999.0,65,-99.99,,,0.00,weatherlink.com 1.10,2013-07-17 03:12:00,
2013-07-16 21:27:00,54.9,44.0,29.74,ESE,103,11.0,-999.0,66,-99.99,,,0.00,weatherlink.com 1.10,2013-07-17 03:27:00,
2013-07-16 21:42:00,54.6,43.0,29.74,ESE,115,14.0,-999.0,66,-99.99,,,0.00,weatherlink.com 1.10,2013-07-17 03:42:00,
2013-07-16 21:57:00,54.1,43.0,29.75,East,98,9.0,-999.0,66,-99.99,,,0.00,weatherlink.com 1.10,2013-07-17 03:57:00,
2013-07-16 22:12:00,53.5,43.0,29.75,ENE,73,7.0,-999.0,67,-99.99,,,0.00,weatherlink.com 1.10,2013-07-17 04:12:00,
2013-07-16 22:27:00,53.3,43.0,29.76,East,90,9.0,-999.0,68,-99.99,,,0.00,weatherlink.com 1.10,2013-07-17 04:27:00,
2013-07-16 22:43:00,52.7,43.0,29.76,ESE,102,11.0,-999.0,69,-99.99,,,0.00,weatherlink.com 1.10,2013-07-17 04:43:00,
2013-07-16 22:58:00,52.6,43.0,29.76,East,92,5.0,-999.0,69,-99.99,,,0.00,weatherlink.com 1.10,2013-07-17 04:58:00,
2013-07-16 23:13:00,52.5,43.0,29.76,ESE,102,1.0,-999.0,70,-99.99,,,0.00,weatherlink.com 1.10,2013-07-17 05:13:00,
2013-07-16 23:28:00,52.9,42.0,29.76,SE,144,2.0,-999.0,66,-99.99,,,0.00,weatherlink.com 1.10,2013-07-17 05:28:00,
2013-07-16 23:43:00,54.0,42.0,29.76,SE,144,5.0,-999.0,64,-99.99,,,0.00,weatherlink.com 1.10,2013-07-17 05:43:00,
2013-07-16 23:58:00,54.1,42.0,29.76,SE,144,4.0,-999.0,64,-99.99,,,0.00,weatherlink.com 1.10,2013-07-17 05:58:00,